createdAt,value
2019-02-26T00:04:23.207Z,46.45
2019-02-26T00:09:28.235Z,46.22
2019-02-26T00:14:33.356Z,46.69
2019-02-26T00:19:37.577Z,46.95
2019-02-26T00:24:42.701Z,46.80
2019-02-26T00:29:49.213Z,47.00
2019-02-26T00:34:55.721Z,47.17
2019-02-26T00:39:59.668Z,47.27
2019-02-26T00:45:05.803Z,47.44
2019-02-26T00:50:12.015Z,47.83
2019-02-26T00:55:16.366Z,48.25
2019-02-26T01:00:20.804Z,48.40
2019-02-26T01:05:25.047Z,48.28
2019-02-26T01:10:29.293Z,48.85
2019-02-26T01:15:33.530Z,49.07
2019-02-26T01:20:37.767Z,49.59
2019-02-26T01:25:42.233Z,49.86
2019-02-26T01:30:48.911Z,49.65
2019-02-26T01:35:53.464Z,49.77
2019-02-26T01:40:58.512Z,49.70
2019-02-26T01:46:02.741Z,50.22
2019-02-26T01:51:06.971Z,50.74
2019-02-26T01:56:11.204Z,51.20
2019-02-26T02:01:16.797Z,50.93
2019-02-26T02:06:21.519Z,50.91
2019-02-26T02:11:28.244Z,51.15
2019-02-26T02:16:33.507Z,51.11
2019-02-26T02:21:37.935Z,51.04
2019-02-26T02:26:45.338Z,51.43
2019-02-26T02:31:48.119Z,51.98
2019-02-26T02:36:52.372Z,52.26
2019-02-26T02:41:56.839Z,52.87
2019-02-26T02:47:03.347Z,53.37
2019-02-26T02:52:09.623Z,53.99
2019-02-26T02:57:13.712Z,53.84
2019-02-26T03:02:20.446Z,53.93
2019-02-26T03:07:26.699Z,54.17
2019-02-26T03:12:29.988Z,54.68
2019-02-26T03:17:34.203Z,54.21
2019-02-26T03:22:41.969Z,54.70
2019-02-26T03:27:44.596Z,55.59
2019-02-26T03:32:55.698Z,55.61
2019-02-26T03:37:57.933Z,56.35
2019-02-26T03:43:01.508Z,56.96
2019-02-26T03:48:06.769Z,57.02
2019-02-26T03:53:10.999Z,57.13
2019-02-26T03:58:15.222Z,57.31
2019-02-26T04:03:19.954Z,57.49
2019-02-26T04:08:25.084Z,57.37
2019-02-26T04:13:30.199Z,58.11
2019-02-26T04:18:34.935Z,57.40
2019-02-26T04:23:41.560Z,56.97
2019-02-26T04:28:57.352Z,57.43
2019-02-26T04:34:15.232Z,57.60
2019-02-26T04:39:42.912Z,57.88
2019-02-26T04:45:22.407Z,57.92
2019-02-26T04:50:29.568Z,58.30
2019-02-26T04:55:36.103Z,59.89
2019-02-26T05:00:38.961Z,59.44
2019-02-26T05:05:43.184Z,58.99
2019-02-26T05:10:49.818Z,58.83
2019-02-26T05:15:53.402Z,58.79
2019-02-26T05:20:59.305Z,59.59
2019-02-26T05:26:05.557Z,59.38
2019-02-26T05:31:12.466Z,59.47
2019-02-26T05:36:17.245Z,59.06
2019-02-26T05:41:21.639Z,58.99
2019-02-26T05:46:27.500Z,59.53
2019-02-26T05:51:32.673Z,60.82
2019-02-26T05:56:40.769Z,60.51
2019-02-26T06:01:46.503Z,60.73
2019-02-26T06:06:51.075Z,61.19
2019-02-26T06:11:55.795Z,60.99
2019-02-26T06:17:00.053Z,60.45
2019-02-26T06:22:04.266Z,60.77
2019-02-26T06:27:10.907Z,60.30
2019-02-26T06:32:15.866Z,60.11
2019-02-26T06:37:23.504Z,60.67
2019-02-26T06:42:28.330Z,61.53
2019-02-26T06:47:33.903Z,61.31
2019-02-26T06:52:39.935Z,60.74
2019-02-26T06:57:47.078Z,60.38
2019-02-26T07:02:50.256Z,60.87
2019-02-26T07:07:56.937Z,60.95
2019-02-26T07:13:02.113Z,60.75
2019-02-26T07:18:07.694Z,60.95
2019-02-26T07:23:12.919Z,60.28
2019-02-26T07:28:20.062Z,60.21
2019-02-26T07:33:24.277Z,60.60
2019-02-26T07:38:28.518Z,60.98
2019-02-26T07:43:36.656Z,60.33
2019-02-26T07:48:38.897Z,58.76
2019-02-26T07:53:48.482Z,58.74
2019-02-26T07:58:49.071Z,57.72
2019-02-26T08:03:53.376Z,57.86
2019-02-26T08:08:57.614Z,57.96
2019-02-26T08:14:01.850Z,57.00
2019-02-26T08:19:06.075Z,56.09
2019-02-26T08:24:12.370Z,55.80
2019-02-26T08:29:16.622Z,56.11
2019-02-26T08:34:20.864Z,55.64
2019-02-26T08:39:25.111Z,54.68
2019-02-26T08:44:29.323Z,55.57
2019-02-26T08:49:35.338Z,54.87
2019-02-26T08:54:39.490Z,54.02
2019-02-26T08:59:45.466Z,55.70
2019-02-26T09:04:49.679Z,56.67
2019-02-26T09:09:56.874Z,55.28
2019-02-26T09:14:59.908Z,54.63
2019-02-26T09:20:09.366Z,54.32
2019-02-26T09:25:10.607Z,55.25
2019-02-26T09:30:16.317Z,54.08
2019-02-26T09:35:26.777Z,54.01
2019-02-26T09:40:29.126Z,54.05
2019-02-26T09:45:32.612Z,53.41
2019-02-26T09:50:38.587Z,54.21
2019-02-26T09:55:42.798Z,52.72
2019-02-26T10:00:48.105Z,52.30
2019-02-26T10:05:55.148Z,51.87
2019-02-26T10:11:01.678Z,52.19
2019-02-26T10:16:06.456Z,53.27
2019-02-26T10:21:12.314Z,51.97
2019-02-26T10:26:16.881Z,51.09
2019-02-26T10:31:23.963Z,49.68
2019-02-26T10:36:30.392Z,49.17
2019-02-26T10:41:34.839Z,48.61
2019-02-26T10:46:41.780Z,48.96
2019-02-26T10:51:45.067Z,50.33
2019-02-26T10:56:49.300Z,50.45
2019-02-26T11:01:55.300Z,50.69
2019-02-26T11:07:01.676Z,49.17
2019-02-26T11:12:08.326Z,49.26
2019-02-26T11:17:11.428Z,48.49
2019-02-26T11:22:18.171Z,49.78
2019-02-26T11:27:21.627Z,50.40
2019-02-26T11:32:27.806Z,50.17
2019-02-26T11:37:32.111Z,50.37
2019-02-26T11:42:36.390Z,49.60
2019-02-26T11:47:41.307Z,47.46
2019-02-26T11:52:46.944Z,46.45
2019-02-26T11:57:51.202Z,44.17
2019-02-26T12:02:55.464Z,43.53
2019-02-26T12:07:59.740Z,46.61
2019-02-26T12:13:04.102Z,46.48
2019-02-26T12:18:10.145Z,46.50
2019-02-26T12:23:16.174Z,47.36
2019-02-26T12:28:20.406Z,48.82
2019-02-26T12:33:24.855Z,49.45
2019-02-26T12:38:29.156Z,49.33
2019-02-26T12:43:36.460Z,49.88
2019-02-26T12:48:41.862Z,50.01
2019-02-26T12:53:47.557Z,49.79
2019-02-26T12:58:54.545Z,48.93
2019-02-26T13:03:57.923Z,49.37
2019-02-26T13:09:02.233Z,48.96
2019-02-26T13:14:06.484Z,49.02
2019-02-26T13:19:11.110Z,48.23
2019-02-26T13:24:17.802Z,50.30
2019-02-26T13:29:21.346Z,50.28
2019-02-26T13:34:25.598Z,50.92
2019-02-26T13:39:38.001Z,50.33
2019-02-26T13:44:35.884Z,51.15
2019-02-26T13:49:40.121Z,51.11
2019-02-26T13:54:44.379Z,50.60
2019-02-26T13:59:48.882Z,51.83
2019-02-26T14:04:53.169Z,52.03
2019-02-26T14:09:57.486Z,52.07
2019-02-26T14:15:03.694Z,52.20
2019-02-26T14:20:08.983Z,52.00
2019-02-26T14:25:13.256Z,52.46
2019-02-26T14:30:17.376Z,53.14
2019-02-26T14:35:21.611Z,53.29
2019-02-26T14:40:25.855Z,52.74
2019-02-26T14:45:30.078Z,52.61
2019-02-26T14:50:35.258Z,52.94
2019-02-26T14:55:39.537Z,52.66
2019-02-26T15:00:43.782Z,52.65
2019-02-26T15:05:48.012Z,52.92
2019-02-26T15:10:52.251Z,52.98
2019-02-26T15:15:56.492Z,53.52
2019-02-26T15:21:00.722Z,53.54
2019-02-26T15:26:04.953Z,53.96
2019-02-26T15:31:09.245Z,54.47
2019-02-26T15:36:13.469Z,54.73
2019-02-26T15:41:17.736Z,55.22
2019-02-26T15:46:21.992Z,55.07
2019-02-26T15:51:26.240Z,55.67
2019-02-26T15:56:30.494Z,55.64
2019-02-26T16:01:34.753Z,56.04
2019-02-26T16:06:39.020Z,56.40
2019-02-26T16:11:43.310Z,56.94
2019-02-26T16:16:47.676Z,57.22
2019-02-26T16:21:51.927Z,57.04
2019-02-26T16:26:56.388Z,57.12
2019-02-26T16:32:02.657Z,57.17
2019-02-26T16:37:07.928Z,57.48
2019-02-26T16:42:12.475Z,57.73
2019-02-26T16:47:17.475Z,58.26
2019-02-26T16:52:21.726Z,58.77
2019-02-26T16:57:28.176Z,59.13
2019-02-26T17:02:31.999Z,59.23
2019-02-26T17:07:36.336Z,59.35
2019-02-26T17:12:40.588Z,59.41
2019-02-26T17:17:44.827Z,59.56
2019-02-26T17:22:49.097Z,59.98
2019-02-26T17:27:53.387Z,60.58
2019-02-26T17:32:57.648Z,60.71
2019-02-26T17:38:01.909Z,61.09
2019-02-26T17:43:06.604Z,61.14
2019-02-26T17:48:10.857Z,61.24
2019-02-26T17:53:15.104Z,61.52
2019-02-26T17:58:19.348Z,61.58
2019-02-26T18:03:25.626Z,62.28
2019-02-26T18:08:29.622Z,62.74
2019-02-26T18:13:33.952Z,63.01
2019-02-26T18:18:38.215Z,63.13
2019-02-26T18:23:42.459Z,63.50
2019-02-26T18:28:47.911Z,63.51
2019-02-26T18:33:52.648Z,63.80
2019-02-26T18:38:57.148Z,64.07
2019-02-26T18:44:09.596Z,63.92
2019-02-26T18:49:13.848Z,63.89
2019-02-26T18:54:20.317Z,64.36
2019-02-26T18:59:24.071Z,64.70
2019-02-26T19:04:28.359Z,64.91
2019-02-26T19:09:32.590Z,65.37
2019-02-26T19:14:36.831Z,65.53
2019-02-26T19:19:42.014Z,65.77
2019-02-26T19:24:46.787Z,66.23
2019-02-26T19:29:51.043Z,66.43
2019-02-26T19:34:55.270Z,66.78
2019-02-26T19:39:59.522Z,66.96
2019-02-26T19:45:08.360Z,66.93
2019-02-26T19:50:11.857Z,67.41
2019-02-26T19:55:19.822Z,67.64
2019-02-26T20:00:24.192Z,67.58
2019-02-26T20:05:28.525Z,67.96
2019-02-26T20:10:32.826Z,68.27
2019-02-26T20:15:37.187Z,68.33
2019-02-26T20:20:45.688Z,68.42
2019-02-26T20:25:47.599Z,68.38
2019-02-26T20:30:51.869Z,68.20
2019-02-26T20:35:56.163Z,68.61
2019-02-26T20:41:00.403Z,68.47
2019-02-26T20:46:04.687Z,68.71
2019-02-26T20:51:09.021Z,68.71
2019-02-26T20:56:13.555Z,68.97
2019-02-26T21:01:17.968Z,68.93
2019-02-26T21:06:22.232Z,69.10
2019-02-26T21:11:26.500Z,69.64
2019-02-26T21:16:30.738Z,69.39
2019-02-26T21:21:35.836Z,69.49
2019-02-26T21:26:40.230Z,69.61
2019-02-26T21:31:44.474Z,69.72
2019-02-26T21:36:48.724Z,69.80
2019-02-26T21:41:55.627Z,70.29
2019-02-26T21:46:58.959Z,70.07
2019-02-26T21:52:06.649Z,70.12
2019-02-26T21:57:09.152Z,69.83
2019-02-26T22:02:13.383Z,69.49
2019-02-26T22:07:19.076Z,69.58
2019-02-26T22:12:24.200Z,69.37
2019-02-26T22:17:29.425Z,70.12
2019-02-26T22:22:33.636Z,70.44
2019-02-26T22:27:38.163Z,70.26
2019-02-26T22:32:42.437Z,70.45
2019-02-26T22:37:46.661Z,70.48
2019-02-26T22:42:50.991Z,70.85
2019-02-26T22:47:55.417Z,71.32
2019-02-26T22:53:03.769Z,71.86
2019-02-26T22:58:05.653Z,70.78
2019-02-26T23:03:10.718Z,71.20
2019-02-26T23:08:15.936Z,71.23
2019-02-26T23:13:20.410Z,71.31
2019-02-26T23:18:24.680Z,71.33
2019-02-26T23:23:29.475Z,72.18
2019-02-26T23:28:33.733Z,72.79
2019-02-26T23:33:37.965Z,72.36
2019-02-26T23:38:44.189Z,71.62
2019-02-26T23:43:48.190Z,71.87
2019-02-26T23:48:52.411Z,72.08
2019-02-26T23:53:56.647Z,72.19
2019-02-26T23:59:01.708Z,72.25
